Ghayl Ba Wazir, Yemen
Current Conditions -  °F | °C
As of 9:00 PM on Thursday 30 Oct 2014 (Local Time) from OYRN Reporting Station
Clear Clear  
Wind Chill: 79°   Ceiling: Unl
Heat Index: 82°   Visibility: 5mi
Dew Point: 72°   Wind: 2mph
Humidity: 78%   Direction: NA
Pressure: 29.85"   Gusts: NA
Location:  14.77°N, 49.37°E
Report Text: OYRN 301800Z VRB02KT 8000 NSC 26/22 Q1011
Loading
Personal Weather Stations






























Interactive Weather Map
Tropical Storm Tracking
New forecast layout! Learn more

10-Day Weather Forecast

Advertisements
Track Severe Weather on mobile